Time;durP1;ratioP1;P1;durP2;ratioP2;P2;SDS_P1;SDS_P2;PMS_P1;PMS_P2;Temp;Humidity;BMP_temperature;BMP_pressure;BME280_temperature;BME280_humidity;BME280_pressure;Samples;Min_cycle;Max_cycle;Signal;HPM_P1;HPM_P2
2022/07/02 00:00:16;;;;;;;;;;;14.00;99.90;;;;;;4976361;28;19921;-78
2022/07/02 00:02:42;;;;;;;;;;;13.90;99.90;;;;;;4976611;28;19976;-78
2022/07/02 00:05:08;;;;;;;;;;;13.90;99.90;;;;;;4976338;28;19911;-78
2022/07/02 00:07:34;;;;;;;;;;;13.90;99.90;;;;;;4975474;28;19910;-77
2022/07/02 00:10:00;;;;;;;;;;;13.90;99.90;;;;;;4976212;28;19910;-79
2022/07/02 00:12:26;;;;;;;;;;;13.90;99.90;;;;;;4976177;28;19933;-77
2022/07/02 00:14:53;;;;;;;;;;;13.80;99.90;;;;;;4976140;28;20399;-78
2022/07/02 00:17:19;;;;;;;;;;;13.80;99.90;;;;;;4976127;28;19914;-78
2022/07/02 00:19:45;;;;;;;;;;;13.70;99.90;;;;;;4976008;28;19920;-79
2022/07/02 00:22:11;;;;;;;;;;;13.60;99.90;;;;;;4975962;28;19910;-79
2022/07/02 00:24:39;;;;;;;;;;;13.50;99.90;;;;;;4976470;28;19953;-78
2022/07/02 00:27:06;;;;;;;;;;;13.50;99.90;;;;;;4976106;28;19910;-78
2022/07/02 00:29:38;;;;;;;;;;;13.40;99.90;;;;;;4976024;28;20374;-78
2022/07/02 00:32:04;;;;;;;;;;;13.40;99.90;;;;;;4975876;28;19914;-78
2022/07/02 00:34:32;;;;;;;;;;;13.30;99.90;;;;;;4975806;28;19910;-78
2022/07/02 00:36:57;;;;;;;;;;;13.20;99.90;;;;;;4975783;28;19960;-77
2022/07/02 00:39:23;;;;;;;;;;;13.10;99.90;;;;;;4975640;28;20278;-78
2022/07/02 00:41:49;;;;;;;;;;;13.10;99.90;;;;;;4975625;28;19956;-78
2022/07/02 00:44:16;;;;;;;;;;;13.10;99.90;;;;;;4975627;28;19910;-78
2022/07/02 00:46:42;;;;;;;;;;;13.00;99.90;;;;;;4975568;28;19910;-77
2022/07/02 00:49:08;;;;;;;;;;;13.10;99.90;;;;;;4958069;28;19960;-78
2022/07/02 00:51:34;;;;;;;;;;;13.20;99.90;;;;;;4975318;28;20001;-78
2022/07/02 00:53:59;;;;;;;;;;;13.10;99.90;;;;;;4975478;28;19969;-79
2022/07/02 00:56:25;;;;;;;;;;;13.00;99.90;;;;;;4975361;28;19916;-78
2022/07/02 00:58:51;;;;;;;;;;;12.80;99.90;;;;;;4975400;28;19949;-78
2022/07/02 01:01:17;;;;;;;;;;;13.00;99.90;;;;;;4975561;28;19910;-77
2022/07/02 01:03:42;;;;;;;;;;;13.10;99.90;;;;;;4975411;28;20366;-78
2022/07/02 01:06:08;;;;;;;;;;;13.10;99.90;;;;;;4975312;28;19910;-77
2022/07/02 01:11:18;;;;;;;;;;;12.90;99.90;;;;;;4975073;28;20461;-78
2022/07/02 01:13:43;;;;;;;;;;;12.70;99.90;;;;;;4975203;28;19910;-78
2022/07/02 01:16:09;;;;;;;;;;;12.60;99.90;;;;;;4975367;28;19961;-78
2022/07/02 01:18:37;;;;;;;;;;;12.70;99.90;;;;;;4974837;28;19911;-79
2022/07/02 01:21:03;;;;;;;;;;;12.60;99.90;;;;;;4974981;28;19922;-78
2022/07/02 01:23:29;;;;;;;;;;;12.50;99.90;;;;;;4975087;28;19910;-77
2022/07/02 01:25:55;;;;;;;;;;;12.50;99.90;;;;;;4974891;28;19917;-77
2022/07/02 01:28:21;;;;;;;;;;;12.40;99.90;;;;;;4975145;28;19910;-77
2022/07/02 01:30:47;;;;;;;;;;;12.50;99.90;;;;;;4975364;28;20385;-78
2022/07/02 01:33:12;;;;;;;;;;;12.50;99.90;;;;;;4975043;28;19964;-77
2022/07/02 01:35:38;;;;;;;;;;;12.50;99.90;;;;;;4975056;28;19914;-77
2022/07/02 01:38:04;;;;;;;;;;;12.50;99.90;;;;;;4974768;28;19932;-78
2022/07/02 01:40:29;;;;;;;;;;;12.50;99.90;;;;;;4975044;28;19917;-78
2022/07/02 01:42:55;;;;;;;;;;;12.50;99.90;;;;;;4974826;28;19977;-79
2022/07/02 01:45:21;;;;;;;;;;;12.40;99.90;;;;;;4974683;28;19992;-79
2022/07/02 01:47:46;;;;;;;;;;;12.30;99.90;;;;;;4974636;28;19957;-78
2022/07/02 01:50:12;;;;;;;;;;;12.20;99.90;;;;;;4974494;28;19980;-78
2022/07/02 01:52:37;;;;;;;;;;;12.10;99.90;;;;;;4975152;28;19910;-78
2022/07/02 01:55:03;;;;;;;;;;;12.10;99.90;;;;;;4974660;28;19910;-78
2022/07/02 01:57:33;;;;;;;;;;;12.20;99.90;;;;;;4974750;28;20371;-78
2022/07/02 01:59:59;;;;;;;;;;;12.10;99.90;;;;;;4974710;28;19918;-78
2022/07/02 02:02:24;;;;;;;;;;;11.90;99.90;;;;;;4974623;28;19910;-78
2022/07/02 02:04:50;;;;;;;;;;;11.80;99.90;;;;;;4974974;28;19940;-79
2022/07/02 02:07:16;;;;;;;;;;;11.90;99.90;;;;;;4974770;28;19992;-78
2022/07/02 02:09:41;;;;;;;;;;;11.80;99.90;;;;;;4974476;28;19918;-77
2022/07/02 02:12:07;;;;;;;;;;;11.60;99.90;;;;;;4974651;28;20379;-78
2022/07/02 02:14:32;;;;;;;;;;;11.70;99.90;;;;;;4974963;28;20009;-78
2022/07/02 02:16:59;;;;;;;;;;;11.70;99.90;;;;;;4974865;28;20370;-78
2022/07/02 02:19:25;;;;;;;;;;;11.70;99.90;;;;;;4974636;28;20363;-77
2022/07/02 02:21:50;;;;;;;;;;;11.90;99.90;;;;;;4974494;28;19928;-78
2022/07/02 02:24:16;;;;;;;;;;;11.80;99.90;;;;;;4974604;28;19911;-77
2022/07/02 02:26:41;;;;;;;;;;;11.80;99.90;;;;;;4974454;28;20355;-78
2022/07/02 02:29:07;;;;;;;;;;;11.90;99.90;;;;;;4974374;28;20290;-78
2022/07/02 02:31:33;;;;;;;;;;;11.90;99.90;;;;;;4958971;28;19914;-78
2022/07/02 02:33:58;;;;;;;;;;;11.90;99.90;;;;;;4978020;28;19993;-78
2022/07/02 02:36:24;;;;;;;;;;;11.90;99.90;;;;;;4977912;28;19917;-78
2022/07/02 02:38:49;;;;;;;;;;;11.90;99.90;;;;;;4978137;28;19917;-77
2022/07/02 02:41:15;;;;;;;;;;;11.80;99.90;;;;;;4978204;28;19911;-78
2022/07/02 02:43:41;;;;;;;;;;;11.70;99.90;;;;;;4977862;28;20286;-78
2022/07/02 02:46:07;;;;;;;;;;;11.80;99.90;;;;;;4977933;28;20006;-78
2022/07/02 02:48:33;;;;;;;;;;;11.70;99.90;;;;;;4977475;28;20363;-78
2022/07/02 02:50:59;;;;;;;;;;;11.60;99.90;;;;;;4977531;28;19922;-78
2022/07/02 02:53:25;;;;;;;;;;;11.70;99.90;;;;;;4977641;28;19917;-77
2022/07/02 02:55:50;;;;;;;;;;;11.70;99.90;;;;;;4977618;28;19946;-78
2022/07/02 02:58:16;;;;;;;;;;;11.60;99.90;;;;;;4977553;28;20359;-78
2022/07/02 03:00:41;;;;;;;;;;;11.60;99.90;;;;;;4977495;28;19917;-78
2022/07/02 03:03:07;;;;;;;;;;;11.50;99.90;;;;;;4977421;28;20267;-78
2022/07/02 03:05:32;;;;;;;;;;;11.50;99.90;;;;;;4977453;28;20017;-78
2022/07/02 03:07:58;;;;;;;;;;;11.50;99.90;;;;;;4977432;28;20378;-78
2022/07/02 03:10:24;;;;;;;;;;;11.50;99.90;;;;;;4977121;28;19968;-78
2022/07/02 03:12:49;;;;;;;;;;;11.60;99.90;;;;;;4977340;28;20401;-78
2022/07/02 03:15:15;;;;;;;;;;;11.50;99.90;;;;;;4977476;28;19910;-78
2022/07/02 03:17:40;;;;;;;;;;;11.50;99.90;;;;;;4977240;28;19942;-78
2022/07/02 03:20:06;;;;;;;;;;;11.40;99.90;;;;;;4977433;28;19922;-79
2022/07/02 03:22:32;;;;;;;;;;;11.30;99.90;;;;;;4977180;28;19910;-78
2022/07/02 03:24:57;;;;;;;;;;;11.30;99.90;;;;;;4977078;28;19910;-77
2022/07/02 03:27:24;;;;;;;;;;;11.00;99.90;;;;;;4977008;28;19972;-77
2022/07/02 03:29:51;;;;;;;;;;;11.00;99.90;;;;;;4976976;28;19920;-78
2022/07/02 03:32:17;;;;;;;;;;;11.10;99.90;;;;;;4977083;28;19921;-79
2022/07/02 03:34:42;;;;;;;;;;;11.10;99.90;;;;;;4977032;28;19914;-78
2022/07/02 03:37:08;;;;;;;;;;;11.00;99.90;;;;;;4976910;28;19956;-78
2022/07/02 03:39:33;;;;;;;;;;;11.00;99.90;;;;;;4976788;28;19910;-78
2022/07/02 03:41:59;;;;;;;;;;;10.90;99.90;;;;;;4976592;28;19945;-78
2022/07/02 03:44:24;;;;;;;;;;;10.80;99.90;;;;;;4976784;28;20442;-77
2022/07/02 03:46:50;;;;;;;;;;;10.80;99.90;;;;;;4976724;28;20027;-78
2022/07/02 03:49:16;;;;;;;;;;;10.70;99.90;;;;;;4976590;28;19950;-77
2022/07/02 03:51:41;;;;;;;;;;;10.80;99.90;;;;;;4976522;28;20275;-78
2022/07/02 03:54:07;;;;;;;;;;;10.90;99.90;;;;;;4976609;28;19914;-77
2022/07/02 03:56:32;;;;;;;;;;;11.00;99.90;;;;;;4976579;28;20343;-78
2022/07/02 03:58:58;;;;;;;;;;;10.90;99.90;;;;;;4976530;28;19916;-78
2022/07/02 04:01:24;;;;;;;;;;;11.00;99.90;;;;;;4976316;28;19910;-79
2022/07/02 04:03:49;;;;;;;;;;;11.10;99.90;;;;;;4976422;28;19910;-77
2022/07/02 04:06:15;;;;;;;;;;;11.00;99.90;;;;;;4976557;28;19992;-79
2022/07/02 04:08:41;;;;;;;;;;;10.90;99.90;;;;;;4976227;28;19918;-78
2022/07/02 04:11:06;;;;;;;;;;;11.00;99.90;;;;;;4976268;28;20426;-78
2022/07/02 04:13:32;;;;;;;;;;;11.00;99.90;;;;;;4976452;28;19917;-77
2022/07/02 04:15:57;;;;;;;;;;;10.90;99.90;;;;;;4976559;28;19910;-77
2022/07/02 04:18:23;;;;;;;;;;;10.90;99.90;;;;;;4976349;28;19918;-78
2022/07/02 04:20:49;;;;;;;;;;;10.90;99.90;;;;;;4976075;28;19917;-78
2022/07/02 04:23:14;;;;;;;;;;;11.00;99.90;;;;;;4976042;28;19911;-78
2022/07/02 04:25:40;;;;;;;;;;;10.90;99.90;;;;;;4976210;28;20001;-78
2022/07/02 04:28:07;;;;;;;;;;;10.90;99.90;;;;;;4975803;28;20280;-78
2022/07/02 04:30:32;;;;;;;;;;;10.90;99.90;;;;;;4975772;28;20019;-78
2022/07/02 04:32:58;;;;;;;;;;;10.90;99.90;;;;;;4976126;28;19950;-78
2022/07/02 04:35:24;;;;;;;;;;;11.00;99.90;;;;;;4975788;28;20430;-77
2022/07/02 04:37:49;;;;;;;;;;;11.10;99.90;;;;;;4975748;28;19910;-79
2022/07/02 04:40:15;;;;;;;;;;;11.20;99.90;;;;;;4975872;28;20001;-79
2022/07/02 04:42:40;;;;;;;;;;;11.30;99.90;;;;;;4975930;28;19910;-78
2022/07/02 04:45:06;;;;;;;;;;;11.30;99.90;;;;;;4975826;28;19915;-78
2022/07/02 04:47:32;;;;;;;;;;;11.30;99.90;;;;;;4975523;28;19910;-78
2022/07/02 04:49:57;;;;;;;;;;;11.20;99.90;;;;;;4975331;28;19915;-79
2022/07/02 04:52:24;;;;;;;;;;;11.20;99.90;;;;;;4975844;28;20362;-78
2022/07/02 04:54:50;;;;;;;;;;;11.20;99.90;;;;;;4974950;28;19910;-78
2022/07/02 04:57:15;;;;;;;;;;;11.30;99.90;;;;;;4975440;28;19918;-79
2022/07/02 04:59:44;;;;;;;;;;;11.30;99.90;;;;;;4975398;28;19910;-78
2022/07/02 05:02:10;;;;;;;;;;;11.40;99.90;;;;;;4975382;28;19910;-78
2022/07/02 05:04:36;;;;;;;;;;;11.40;99.90;;;;;;4975509;28;19910;-78
2022/07/02 05:07:01;;;;;;;;;;;11.40;99.90;;;;;;4975438;28;19917;-77
2022/07/02 05:09:27;;;;;;;;;;;11.50;99.90;;;;;;4975149;28;20002;-78
2022/07/02 05:11:52;;;;;;;;;;;11.50;99.90;;;;;;4975177;28;19914;-77
2022/07/02 05:14:18;;;;;;;;;;;11.60;99.90;;;;;;4975175;28;19914;-77
2022/07/02 05:16:44;;;;;;;;;;;11.60;99.90;;;;;;4975229;28;19942;-78
2022/07/02 05:19:09;;;;;;;;;;;11.70;99.90;;;;;;4975111;28;19918;-77
2022/07/02 05:21:36;;;;;;;;;;;11.80;99.90;;;;;;4975129;28;19910;-78
2022/07/02 05:24:02;;;;;;;;;;;11.80;99.90;;;;;;4975092;28;20005;-78
2022/07/02 05:26:28;;;;;;;;;;;11.90;99.90;;;;;;4974966;28;19948;-78
2022/07/02 05:28:54;;;;;;;;;;;12.00;99.90;;;;;;4975013;28;19944;-78
2022/07/02 05:31:20;;;;;;;;;;;12.20;99.90;;;;;;4974924;28;19910;-78
2022/07/02 05:33:45;;;;;;;;;;;12.30;99.90;;;;;;4974911;28;19976;-79
2022/07/02 05:36:11;;;;;;;;;;;12.20;99.90;;;;;;4974846;28;19910;-79
2022/07/02 05:38:37;;;;;;;;;;;12.20;99.90;;;;;;4974722;28;19921;-79
2022/07/02 05:41:02;;;;;;;;;;;12.30;99.90;;;;;;4974832;28;19920;-79
2022/07/02 05:43:28;;;;;;;;;;;12.40;99.90;;;;;;4974879;28;19910;-79
2022/07/02 05:45:54;;;;;;;;;;;12.60;99.90;;;;;;4974756;28;20004;-79
2022/07/02 05:48:19;;;;;;;;;;;12.60;99.90;;;;;;4974571;28;19911;-78
2022/07/02 05:50:45;;;;;;;;;;;12.80;99.90;;;;;;4974469;28;20301;-79
2022/07/02 05:53:11;;;;;;;;;;;12.90;99.90;;;;;;4974775;28;19914;-78
2022/07/02 05:55:36;;;;;;;;;;;13.00;99.90;;;;;;4975008;28;19915;-78
2022/07/02 05:58:02;;;;;;;;;;;13.10;99.90;;;;;;4974667;28;20514;-78
2022/07/02 06:00:27;;;;;;;;;;;13.20;99.90;;;;;;4974662;28;19989;-79
2022/07/02 06:02:53;;;;;;;;;;;13.20;99.90;;;;;;4974568;28;20277;-78
2022/07/02 06:08:03;;;;;;;;;;;13.40;99.90;;;;;;4978582;28;19920;-78
2022/07/02 06:10:28;;;;;;;;;;;13.50;99.90;;;;;;4978443;28;19914;-78
2022/07/02 06:12:54;;;;;;;;;;;13.60;99.90;;;;;;4978327;28;20274;-78
2022/07/02 06:15:20;;;;;;;;;;;13.70;99.90;;;;;;4978651;28;20363;-79
2022/07/02 06:17:46;;;;;;;;;;;13.80;99.90;;;;;;4978304;28;19910;-78
2022/07/02 06:20:12;;;;;;;;;;;14.00;99.90;;;;;;4978192;28;20263;-78
2022/07/02 06:22:38;;;;;;;;;;;14.10;99.90;;;;;;4978611;28;19917;-79
2022/07/02 06:25:04;;;;;;;;;;;14.00;99.90;;;;;;4978480;28;19910;-79
2022/07/02 06:27:33;;;;;;;;;;;13.90;99.90;;;;;;4978124;28;19917;-79
2022/07/02 06:30:02;;;;;;;;;;;14.00;99.90;;;;;;4977990;28;20004;-78
2022/07/02 06:32:28;;;;;;;;;;;14.00;99.90;;;;;;4978039;28;19917;-78
2022/07/02 06:34:54;;;;;;;;;;;14.20;99.90;;;;;;4978016;28;20279;-78
2022/07/02 06:37:20;;;;;;;;;;;14.40;99.90;;;;;;4977920;28;19917;-78
2022/07/02 06:39:46;;;;;;;;;;;14.60;99.90;;;;;;4977891;28;19910;-79
2022/07/02 06:42:26;;;;;;;;;;;14.70;99.90;;;;;;4977794;28;19917;-79
2022/07/02 06:44:53;;;;;;;;;;;14.80;99.90;;;;;;4978029;28;19910;-79
2022/07/02 06:47:19;;;;;;;;;;;15.00;99.90;;;;;;4977630;28;19910;-78
2022/07/02 06:49:45;;;;;;;;;;;15.00;99.90;;;;;;4977617;28;19920;-78
2022/07/02 06:52:11;;;;;;;;;;;15.20;99.90;;;;;;4977443;28;20293;-78
2022/07/02 06:54:37;;;;;;;;;;;15.30;99.90;;;;;;4977625;28;20371;-79
2022/07/02 06:57:03;;;;;;;;;;;15.30;99.90;;;;;;4977594;28;19921;-79
2022/07/02 06:59:29;;;;;;;;;;;15.40;99.90;;;;;;4977438;28;19910;-79
2022/07/02 07:01:55;;;;;;;;;;;15.60;99.90;;;;;;4977538;28;19915;-79
2022/07/02 07:04:20;;;;;;;;;;;15.70;99.90;;;;;;4977581;28;20371;-78
2022/07/02 07:06:52;;;;;;;;;;;15.80;99.90;;;;;;4977514;28;20001;-79
2022/07/02 07:09:18;;;;;;;;;;;15.90;99.90;;;;;;4977445;28;20335;-79
2022/07/02 07:11:43;;;;;;;;;;;15.90;99.90;;;;;;4977351;28;19945;-78
2022/07/02 07:14:09;;;;;;;;;;;16.00;99.90;;;;;;4977272;28;19910;-78
2022/07/02 07:16:35;;;;;;;;;;;16.00;99.90;;;;;;4976769;28;19957;-79
2022/07/02 07:19:04;;;;;;;;;;;16.10;99.90;;;;;;4977273;28;19910;-79
2022/07/02 07:21:30;;;;;;;;;;;16.20;99.90;;;;;;4977048;28;19910;-79
2022/07/02 07:23:56;;;;;;;;;;;16.50;99.90;;;;;;4977093;28;20497;-79
2022/07/02 07:26:21;;;;;;;;;;;16.50;99.90;;;;;;4977141;28;19954;-79
2022/07/02 07:28:47;;;;;;;;;;;16.60;99.90;;;;;;4976804;28;20363;-79
2022/07/02 07:31:13;;;;;;;;;;;16.60;99.90;;;;;;4976989;28;20008;-78
2022/07/02 07:33:40;;;;;;;;;;;16.80;99.90;;;;;;4976922;28;20001;-79
2022/07/02 07:36:05;;;;;;;;;;;17.00;99.90;;;;;;4976921;28;19917;-78
2022/07/02 07:38:31;;;;;;;;;;;17.10;99.90;;;;;;4976973;28;20299;-78
2022/07/02 07:40:57;;;;;;;;;;;17.20;99.90;;;;;;4976794;28;19942;-80
2022/07/02 07:43:23;;;;;;;;;;;17.40;99.90;;;;;;4976759;28;19910;-79
2022/07/02 07:45:48;;;;;;;;;;;17.50;99.90;;;;;;4977026;28;19910;-79
2022/07/02 07:48:14;;;;;;;;;;;18.30;99.90;;;;;;4976620;28;19949;-78
2022/07/02 07:50:40;;;;;;;;;;;21.30;99.90;;;;;;4976358;28;20367;-80
2022/07/02 07:53:05;;;;;;;;;;;24.70;99.90;;;;;;4976780;28;19910;-79
2022/07/02 07:55:31;;;;;;;;;;;27.40;80.90;;;;;;4976557;28;19910;-79
2022/07/02 07:57:57;;;;;;;;;;;28.20;75.60;;;;;;4976483;28;19914;-79
2022/07/02 08:00:22;;;;;;;;;;;29.40;72.40;;;;;;4976295;28;20004;-81
2022/07/02 08:02:48;;;;;;;;;;;30.40;71.60;;;;;;4976288;28;19910;-80
2022/07/02 08:05:13;;;;;;;;;;;30.30;65.80;;;;;;4976385;28;19910;-79
2022/07/02 08:07:39;;;;;;;;;;;30.10;64.50;;;;;;4976334;28;19911;-80
2022/07/02 08:10:06;;;;;;;;;;;28.30;64.20;;;;;;4976246;28;19953;-80
2022/07/02 08:12:32;;;;;;;;;;;28.50;62.20;;;;;;4976218;28;20375;-79
2022/07/02 08:14:59;;;;;;;;;;;28.90;61.20;;;;;;4976363;28;19910;-80
2022/07/02 08:17:25;;;;;;;;;;;29.00;59.50;;;;;;4976401;28;19973;-79
2022/07/02 08:19:51;;;;;;;;;;;28.70;59.70;;;;;;4976120;28;19960;-80
2022/07/02 08:22:16;;;;;;;;;;;28.50;60.50;;;;;;4976128;28;19910;-81
2022/07/02 08:24:42;;;;;;;;;;;28.50;60.70;;;;;;4975856;28;19910;-79
2022/07/02 08:27:07;;;;;;;;;;;27.90;61.30;;;;;;4975914;28;20402;-80
2022/07/02 08:29:33;;;;;;;;;;;27.60;61.30;;;;;;4975118;28;19968;-81
2022/07/02 08:31:58;;;;;;;;;;;27.80;59.40;;;;;;4976062;28;19973;-79
2022/07/02 08:34:24;;;;;;;;;;;28.10;60.50;;;;;;4975924;28;20285;-81
2022/07/02 08:36:50;;;;;;;;;;;28.40;58.90;;;;;;4976221;28;19910;-80
2022/07/02 08:39:15;;;;;;;;;;;27.90;57.30;;;;;;4975731;28;19910;-80
2022/07/02 08:41:42;;;;;;;;;;;27.00;57.00;;;;;;4975600;28;20368;-80
2022/07/02 08:44:08;;;;;;;;;;;27.20;57.10;;;;;;4975730;28;19914;-81
2022/07/02 08:46:38;;;;;;;;;;;27.10;57.90;;;;;;4975868;28;19933;-79
2022/07/02 08:49:04;;;;;;;;;;;26.50;59.10;;;;;;4975770;28;19921;-81
2022/07/02 08:51:30;;;;;;;;;;;26.70;60.40;;;;;;4975387;28;20012;-80
2022/07/02 08:53:55;;;;;;;;;;;26.80;60.10;;;;;;4974103;28;19949;-80
2022/07/02 08:56:22;;;;;;;;;;;26.50;60.60;;;;;;4975437;28;19917;-79
2022/07/02 08:58:50;;;;;;;;;;;26.70;58.60;;;;;;4975333;28;19949;-80
2022/07/02 09:01:15;;;;;;;;;;;26.30;59.40;;;;;;4975459;28;19910;-80
2022/07/02 09:03:42;;;;;;;;;;;26.60;61.40;;;;;;4975576;28;20000;-80
2022/07/02 09:06:08;;;;;;;;;;;26.70;59.00;;;;;;4975256;28;19932;-79
2022/07/02 09:08:33;;;;;;;;;;;26.90;60.10;;;;;;4975234;28;19953;-80
2022/07/02 09:11:00;;;;;;;;;;;27.10;58.80;;;;;;4975739;28;19910;-79
2022/07/02 09:13:26;;;;;;;;;;;27.00;60.30;;;;;;4938447;28;19923;-80
2022/07/02 09:15:52;;;;;;;;;;;26.60;60.00;;;;;;4955730;28;19965;-79
2022/07/02 09:18:19;;;;;;;;;;;27.20;58.70;;;;;;4956208;29;19997;-80
2022/07/02 09:20:44;;;;;;;;;;;27.20;59.10;;;;;;4938236;29;19987;-80
2022/07/02 09:23:20;;;;;;;;;;;28.10;58.70;;;;;;4951400;28;19956;-81
2022/07/02 09:25:46;;;;;;;;;;;29.00;57.00;;;;;;4974195;28;19920;-79
2022/07/02 09:28:13;;;;;;;;;;;28.70;56.40;;;;;;4974685;28;20302;-79
2022/07/02 09:30:39;;;;;;;;;;;28.30;55.90;;;;;;4975273;28;19911;-79
2022/07/02 09:33:31;;;;;;;;;;;27.80;57.40;;;;;;4974623;28;20005;-79
2022/07/02 09:35:57;;;;;;;;;;;27.60;56.60;;;;;;4975403;28;19961;-80
2022/07/02 09:38:22;;;;;;;;;;;28.00;56.00;;;;;;4975122;28;19972;-79
2022/07/02 09:40:55;;;;;;;;;;;29.30;54.80;;;;;;4974938;28;20395;-79
2022/07/02 09:43:25;;;;;;;;;;;28.80;54.70;;;;;;4960700;28;19911;-80
2022/07/02 09:45:50;;;;;;;;;;;28.50;55.30;;;;;;4938195;29;20302;-80
2022/07/02 09:48:17;;;;;;;;;;;29.60;55.20;;;;;;4955503;29;19917;-78
2022/07/02 09:50:43;;;;;;;;;;;29.90;53.30;;;;;;4955402;28;20326;-79
2022/07/02 09:53:11;;;;;;;;;;;28.90;54.40;;;;;;4955680;28;19952;-79
2022/07/02 09:55:37;;;;;;;;;;;29.30;54.80;;;;;;4955334;28;20379;-79
2022/07/02 09:58:03;;;;;;;;;;;29.10;54.20;;;;;;4955509;29;19969;-79
2022/07/02 10:00:31;;;;;;;;;;;29.50;53.90;;;;;;4955436;29;19914;-79
2022/07/02 10:02:57;;;;;;;;;;;30.20;53.60;;;;;;4955325;29;19911;-79
2022/07/02 10:05:24;;;;;;;;;;;29.90;53.20;;;;;;4955395;29;19914;-80
2022/07/02 10:07:51;;;;;;;;;;;29.60;52.70;;;;;;4955292;29;19954;-79
2022/07/02 10:10:17;;;;;;;;;;;30.10;53.60;;;;;;4955636;29;19942;-80
2022/07/02 10:12:43;;;;;;;;;;;29.70;51.30;;;;;;4955223;29;20391;-79
2022/07/02 10:15:12;;;;;;;;;;;29.30;52.60;;;;;;4955209;29;19957;-79
2022/07/02 10:17:39;;;;;;;;;;;29.30;53.30;;;;;;4955122;28;19921;-81
2022/07/02 10:20:05;;;;;;;;;;;30.30;52.10;;;;;;4955117;29;19922;-80
2022/07/02 10:22:30;;;;;;;;;;;30.20;51.80;;;;;;4955382;29;19910;-79
2022/07/02 10:24:57;;;;;;;;;;;29.90;52.80;;;;;;4954982;29;19910;-79
2022/07/02 10:27:24;;;;;;;;;;;29.80;53.30;;;;;;4955092;28;19917;-80
2022/07/02 10:29:50;;;;;;;;;;;30.40;52.60;;;;;;4955210;29;19910;-79
2022/07/02 10:32:32;;;;;;;;;;;30.20;50.30;;;;;;4955221;28;20359;-83
2022/07/02 10:35:05;;;;;;;;;;;30.30;50.60;;;;;;4954913;29;20402;-81
2022/07/02 10:37:31;;;;;;;;;;;31.30;51.10;;;;;;4954985;29;19993;-80
2022/07/02 10:39:59;;;;;;;;;;;31.40;49.30;;;;;;4954225;29;20066;-80
2022/07/02 10:42:34;;;;;;;;;;;30.00;51.20;;;;;;4953048;29;19911;-79
2022/07/02 10:45:07;;;;;;;;;;;30.00;51.80;;;;;;4953106;29;19911;-79
2022/07/02 10:47:33;;;;;;;;;;;30.50;51.40;;;;;;4953189;29;20104;-80
2022/07/02 10:49:59;;;;;;;;;;;29.70;52.90;;;;;;4953041;28;19915;-81
2022/07/02 10:52:38;;;;;;;;;;;30.70;53.40;;;;;;4954763;28;19914;-79
2022/07/02 10:55:04;;;;;;;;;;;32.10;50.20;;;;;;4956563;29;19914;-81
2022/07/02 10:57:29;;;;;;;;;;;31.80;50.20;;;;;;4958279;29;20406;-79
2022/07/02 10:59:55;;;;;;;;;;;31.80;49.00;;;;;;4958339;29;19914;-79
2022/07/02 11:02:21;;;;;;;;;;;33.10;47.50;;;;;;4958250;29;19911;-80
2022/07/02 11:04:48;;;;;;;;;;;32.80;48.00;;;;;;4958214;29;20002;-80
2022/07/02 11:07:14;;;;;;;;;;;32.60;49.80;;;;;;4958177;29;19915;-80
2022/07/02 11:09:57;;;;;;;;;;;33.00;49.70;;;;;;4958250;29;19922;-80
2022/07/02 11:12:27;;;;;;;;;;;32.10;50.20;;;;;;4940568;29;20009;-81
2022/07/02 11:14:54;;;;;;;;;;;32.20;51.60;;;;;;4957892;29;19941;-81
2022/07/02 11:17:21;;;;;;;;;;;32.40;50.80;;;;;;4957897;29;19911;-79
2022/07/02 11:19:50;;;;;;;;;;;32.90;50.00;;;;;;4957731;29;19914;-79
2022/07/02 11:22:15;;;;;;;;;;;32.60;49.80;;;;;;4957766;29;19910;-79
2022/07/02 11:24:43;;;;;;;;;;;33.10;48.00;;;;;;4958053;28;19910;-80
2022/07/02 11:27:09;;;;;;;;;;;34.00;48.90;;;;;;4957737;28;19917;-81
2022/07/02 11:29:34;;;;;;;;;;;33.50;49.50;;;;;;4957733;29;19910;-80
2022/07/02 11:32:00;;;;;;;;;;;32.30;50.40;;;;;;4957896;29;19957;-79
2022/07/02 11:34:29;;;;;;;;;;;31.70;50.90;;;;;;4957756;29;19918;-80
2022/07/02 11:36:55;;;;;;;;;;;31.90;50.70;;;;;;4940350;29;19993;-80
2022/07/02 11:39:22;;;;;;;;;;;32.10;47.90;;;;;;4957462;29;19989;-80
2022/07/02 11:41:48;;;;;;;;;;;32.50;48.20;;;;;;4957417;29;20009;-81
2022/07/02 11:44:14;;;;;;;;;;;33.00;48.30;;;;;;4957400;29;19915;-80
2022/07/02 11:46:42;;;;;;;;;;;32.40;47.40;;;;;;4957453;29;19917;-80
2022/07/02 11:49:15;;;;;;;;;;;33.00;47.30;;;;;;4957368;29;19933;-80
2022/07/02 11:51:41;;;;;;;;;;;32.70;46.80;;;;;;4957242;29;20379;-80
2022/07/02 11:54:07;;;;;;;;;;;33.30;46.50;;;;;;4957484;29;19917;-79
2022/07/02 11:56:36;;;;;;;;;;;32.60;46.60;;;;;;4957257;29;20071;-79
2022/07/02 11:59:01;;;;;;;;;;;31.70;48.40;;;;;;4957178;29;19961;-80
2022/07/02 12:01:28;;;;;;;;;;;32.10;48.70;;;;;;4957182;29;19945;-81
2022/07/02 12:03:55;;;;;;;;;;;32.10;47.00;;;;;;4956988;28;19915;-79
2022/07/02 12:06:21;;;;;;;;;;;32.00;46.00;;;;;;4957355;29;19953;-79
2022/07/02 12:08:50;;;;;;;;;;;30.80;47.90;;;;;;4957002;29;19918;-80
2022/07/02 12:11:16;;;;;;;;;;;32.20;48.20;;;;;;4956958;29;20387;-81
2022/07/02 12:13:43;;;;;;;;;;;33.40;47.70;;;;;;4957304;29;19911;-80
2022/07/02 12:16:09;;;;;;;;;;;33.20;45.70;;;;;;4956967;29;20283;-81
2022/07/02 12:18:36;;;;;;;;;;;32.20;47.40;;;;;;4956782;28;19925;-79
2022/07/02 12:21:12;;;;;;;;;;;33.30;46.80;;;;;;4956754;29;19914;-80
2022/07/02 12:23:41;;;;;;;;;;;32.60;47.40;;;;;;4956628;29;19914;-80
2022/07/02 12:26:07;;;;;;;;;;;31.70;48.30;;;;;;4956702;29;19910;-79
2022/07/02 12:31:16;;;;;;;;;;;32.90;46.90;;;;;;4956364;29;19917;-81
2022/07/02 12:33:42;;;;;;;;;;;32.70;47.20;;;;;;4956739;28;19910;-81
2022/07/02 12:36:07;;;;;;;;;;;33.40;46.50;;;;;;4956527;29;19910;-80
2022/07/02 12:38:43;;;;;;;;;;;33.00;45.70;;;;;;4956526;28;19921;-80
2022/07/02 12:41:08;;;;;;;;;;;33.00;47.10;;;;;;4939087;29;20340;-80
2022/07/02 12:43:34;;;;;;;;;;;32.80;46.30;;;;;;4956532;28;19946;-81
2022/07/02 12:46:03;;;;;;;;;;;32.10;46.70;;;;;;4956720;29;20005;-79
2022/07/02 12:48:29;;;;;;;;;;;31.30;46.90;;;;;;4956489;28;19911;-80
2022/07/02 12:50:54;;;;;;;;;;;32.60;47.60;;;;;;4956098;28;20272;-79
2022/07/02 12:53:21;;;;;;;;;;;34.10;46.70;;;;;;4956210;29;20368;-80
2022/07/02 12:55:58;;;;;;;;;;;35.30;44.70;;;;;;4956101;29;19914;-81
2022/07/02 12:58:24;;;;;;;;;;;34.80;44.90;;;;;;4956351;29;19915;-81
2022/07/02 13:00:49;;;;;;;;;;;33.70;45.50;;;;;;4955747;29;19944;-80
2022/07/02 13:03:16;;;;;;;;;;;32.30;46.70;;;;;;4956021;29;19910;-80
2022/07/02 13:05:43;;;;;;;;;;;32.90;46.20;;;;;;4955941;29;19914;-80
2022/07/02 13:08:09;;;;;;;;;;;35.70;44.50;;;;;;4955982;29;19997;-81
2022/07/02 13:10:36;;;;;;;;;;;37.00;43.60;;;;;;4956066;29;19917;-82
2022/07/02 13:13:02;;;;;;;;;;;36.80;42.50;;;;;;4955892;29;19911;-81
2022/07/02 13:15:28;;;;;;;;;;;35.10;43.30;;;;;;4955443;28;19933;-80
2022/07/02 13:17:53;;;;;;;;;;;35.30;43.50;;;;;;4955962;29;19982;-80
2022/07/02 13:20:19;;;;;;;;;;;35.30;43.70;;;;;;4955978;29;19915;-79
2022/07/02 13:22:45;;;;;;;;;;;34.80;43.50;;;;;;4955716;28;20272;-80
2022/07/02 13:25:11;;;;;;;;;;;34.30;43.40;;;;;;4955913;28;19954;-79
2022/07/02 13:27:38;;;;;;;;;;;34.50;44.10;;;;;;4955731;29;19945;-80
2022/07/02 13:30:04;;;;;;;;;;;34.40;44.10;;;;;;4955695;29;19914;-81
2022/07/02 13:32:29;;;;;;;;;;;34.10;44.80;;;;;;4955571;29;19911;-80
2022/07/02 13:34:55;;;;;;;;;;;33.40;45.30;;;;;;4955671;29;19910;-80
2022/07/02 13:37:20;;;;;;;;;;;34.00;44.50;;;;;;4956002;29;20390;-81
2022/07/02 13:39:46;;;;;;;;;;;34.70;43.50;;;;;;4955495;29;19915;-80
2022/07/02 13:42:12;;;;;;;;;;;34.70;43.70;;;;;;4955551;29;19948;-81
2022/07/02 13:44:38;;;;;;;;;;;35.30;43.10;;;;;;4955550;29;19942;-80
2022/07/02 13:47:03;;;;;;;;;;;36.90;42.10;;;;;;4955346;29;19917;-78
2022/07/02 13:49:29;;;;;;;;;;;37.50;42.20;;;;;;4955212;29;19969;-79
2022/07/02 13:51:55;;;;;;;;;;;37.30;42.20;;;;;;4955056;28;19949;-79
2022/07/02 13:54:20;;;;;;;;;;;37.20;41.50;;;;;;4955563;29;19917;-78
2022/07/02 13:56:46;;;;;;;;;;;36.90;40.70;;;;;;4955414;29;19918;-79
2022/07/02 13:59:12;;;;;;;;;;;37.30;41.20;;;;;;4955290;29;19922;-79
2022/07/02 14:01:37;;;;;;;;;;;36.80;40.80;;;;;;4955368;29;19915;-80
2022/07/02 14:04:03;;;;;;;;;;;36.90;41.40;;;;;;4955617;29;19914;-78
2022/07/02 14:06:29;;;;;;;;;;;37.70;40.50;;;;;;4955353;28;19911;-78
2022/07/02 14:08:55;;;;;;;;;;;37.40;41.00;;;;;;4955297;29;19952;-78
2022/07/02 14:11:21;;;;;;;;;;;35.90;40.70;;;;;;4955267;29;19911;-78
2022/07/02 14:13:47;;;;;;;;;;;34.80;42.20;;;;;;4955289;29;19921;-78
2022/07/02 14:16:12;;;;;;;;;;;34.80;42.80;;;;;;4955500;29;19911;-77
2022/07/02 14:18:38;;;;;;;;;;;35.00;42.60;;;;;;4955257;28;19917;-78